Huvudsida
METAR-TAF:

METAR-TAF

Flygplatser :

Hang Nadim Airport

Batam, Indonesien

latitud: 01-07-15N, longitud: 104-07-07E, höjd: 38 m

METAR: saknas

Tid: 22:48 (15:48 UTC)

Väderprognos

Denna rapport gjordes för 4 timmar och 48 minuter sedan, klockan 11:00 UTC
Prognos gäller från 27 kl. 12 UTC till 28 kl. 12 UTC
Vind kt från nord
Sikt: 9000 m
Få moln på en höjd av 1400 ft
Blir
från 28 kl. 00 UTC till 28 kl. 02 UTC
Vind 8 kt från väst

TAF: WIDD 271100Z 2712/2812 00000KT 9000 FEW014 BECMG 2800/2802 26008KT

Aktuella väderrapporter och prognoser från 4000 flygplatser (METAR- och TAF-rapporter).

De tillgängliga stationerna syns som gula och röda prickar på kartan.

För musen över prickarna för att se namnen på stationerna.

Klicka sedan för att få väderrapporter och prognoser.

För att ändra kartan: Klicka på de gröna knapparna med ett svart kors på för att zooma in; den gröna knappen med ett streck på för att zooma ut; eller på de gröna pilarna för angränsande kartor.


METAR-TAF: